createdAt,value
2018-11-03T00:01:53.256Z,64.64
2018-11-03T00:04:27.345Z,64.47
2018-11-03T00:07:01.375Z,64.49
2018-11-03T00:09:35.475Z,64.51
2018-11-03T00:12:09.613Z,64.38
2018-11-03T00:14:43.782Z,64.30
2018-11-03T00:17:17.891Z,64.59
2018-11-03T00:19:51.969Z,64.46
2018-11-03T00:22:26.014Z,64.46
2018-11-03T00:25:00.159Z,64.37
2018-11-03T00:27:34.212Z,64.28
2018-11-03T00:30:10.790Z,64.44
2018-11-03T00:32:44.836Z,64.34
2018-11-03T00:35:18.863Z,64.26
2018-11-03T00:37:52.998Z,64.19
2018-11-03T00:40:27.103Z,64.27
2018-11-03T00:43:01.138Z,64.12
2018-11-03T00:45:35.263Z,63.94
2018-11-03T00:48:09.267Z,63.94
2018-11-03T00:50:43.340Z,63.93
2018-11-03T00:53:17.393Z,63.97
2018-11-03T00:55:51.502Z,63.68
2018-11-03T00:58:25.629Z,63.87
2018-11-03T01:00:59.750Z,63.79
2018-11-03T01:03:33.803Z,63.66
2018-11-03T01:06:07.884Z,63.71
2018-11-03T01:08:41.930Z,63.55
2018-11-03T01:11:15.997Z,63.63
2018-11-03T01:13:49.994Z,63.61
2018-11-03T01:16:24.081Z,63.34
2018-11-03T01:18:58.105Z,63.59
2018-11-03T01:21:32.172Z,63.54
2018-11-03T01:24:06.826Z,63.38
2018-11-03T01:26:40.894Z,63.25
2018-11-03T01:29:15.167Z,63.33
2018-11-03T01:31:49.232Z,63.20
2018-11-03T01:34:23.255Z,63.32
2018-11-03T01:36:57.292Z,63.36
2018-11-03T01:39:31.303Z,63.21
2018-11-03T01:42:05.519Z,63.20
2018-11-03T01:44:39.588Z,63.11
2018-11-03T01:47:13.626Z,62.96
2018-11-03T01:49:47.659Z,63.12
2018-11-03T01:52:21.705Z,63.13
2018-11-03T01:54:55.698Z,62.97
2018-11-03T01:57:29.891Z,63.06
2018-11-03T02:00:04.365Z,63.07
2018-11-03T02:02:38.486Z,62.89
2018-11-03T02:05:12.611Z,62.94
2018-11-03T02:07:46.742Z,63.07
2018-11-03T02:10:20.769Z,63.29
2018-11-03T02:12:54.888Z,63.12
2018-11-03T02:15:28.897Z,63.16
2018-11-03T02:18:02.970Z,63.02
2018-11-03T02:20:36.979Z,63.02
2018-11-03T02:23:11.069Z,63.17
2018-11-03T02:25:45.117Z,63.06
2018-11-03T02:28:19.257Z,62.96
2018-11-03T02:30:53.259Z,63.17
2018-11-03T02:33:27.325Z,63.10
2018-11-03T02:36:01.485Z,63.37
2018-11-03T02:38:35.555Z,63.23
2018-11-03T02:41:09.601Z,63.02
2018-11-03T02:43:43.662Z,62.97
2018-11-03T02:46:17.730Z,63.06
2018-11-03T02:48:51.799Z,63.22
2018-11-03T02:51:25.643Z,63.09
2018-11-03T02:53:59.528Z,63.01
2018-11-03T02:56:33.357Z,63.50
2018-11-03T02:59:07.296Z,63.16
2018-11-03T03:01:41.185Z,63.19
2018-11-03T03:04:15.217Z,63.11
2018-11-03T03:06:49.045Z,63.21
2018-11-03T03:09:22.919Z,63.32
2018-11-03T03:11:56.825Z,63.27
2018-11-03T03:14:30.713Z,63.08
2018-11-03T03:17:04.635Z,62.91
2018-11-03T03:19:38.534Z,63.06
2018-11-03T03:22:12.403Z,63.06
2018-11-03T03:24:46.247Z,63.17
2018-11-03T03:27:20.095Z,63.49
2018-11-03T03:29:54.051Z,63.62
2018-11-03T03:32:27.908Z,63.62
2018-11-03T03:35:01.885Z,63.58
2018-11-03T03:37:35.782Z,63.67
2018-11-03T03:40:10.134Z,63.59
2018-11-03T03:42:44.021Z,63.40
2018-11-03T03:45:17.884Z,63.45
2018-11-03T03:47:51.731Z,63.34
2018-11-03T03:50:25.604Z,63.23
2018-11-03T03:52:59.473Z,63.34
2018-11-03T03:55:33.360Z,63.18
2018-11-03T03:58:07.595Z,63.19
2018-11-03T04:00:41.495Z,63.13
2018-11-03T04:03:15.318Z,63.07
2018-11-03T04:05:49.254Z,63.02
2018-11-03T04:08:23.111Z,63.05
2018-11-03T04:10:57.010Z,63.01
2018-11-03T04:13:30.844Z,63.15
2018-11-03T04:16:04.933Z,63.16
2018-11-03T04:18:38.835Z,63.27
2018-11-03T04:21:17.050Z,63.48
2018-11-03T04:23:50.908Z,63.46
2018-11-03T04:26:25.104Z,63.46
2018-11-03T04:28:59.507Z,63.36
2018-11-03T04:31:33.399Z,63.30
2018-11-03T04:34:07.255Z,63.28
2018-11-03T04:36:41.112Z,63.24
2018-11-03T04:39:14.956Z,63.29
2018-11-03T04:41:48.977Z,63.25
2018-11-03T04:44:22.899Z,63.02
2018-11-03T04:46:56.874Z,62.97
2018-11-03T04:49:30.726Z,63.17
2018-11-03T04:52:04.793Z,63.19
2018-11-03T04:54:38.613Z,63.10
2018-11-03T04:57:12.529Z,63.25
2018-11-03T04:59:46.405Z,63.45
2018-11-03T05:02:20.306Z,63.14
2018-11-03T05:04:54.176Z,63.45
2018-11-03T05:07:28.208Z,63.32
2018-11-03T05:10:02.144Z,63.49
2018-11-03T05:12:36.319Z,63.49
2018-11-03T05:15:10.215Z,63.57
2018-11-03T05:17:44.089Z,63.84
2018-11-03T05:20:17.963Z,63.45
2018-11-03T05:22:51.872Z,63.42
2018-11-03T05:25:25.679Z,63.54
2018-11-03T05:27:59.640Z,63.52
2018-11-03T05:30:33.559Z,63.67
2018-11-03T05:33:07.504Z,63.54
2018-11-03T05:35:41.355Z,63.43
2018-11-03T05:38:15.230Z,63.56
2018-11-03T05:40:49.093Z,63.45
2018-11-03T05:43:22.997Z,63.39
2018-11-03T05:45:56.852Z,63.30
2018-11-03T05:48:30.709Z,63.40
2018-11-03T05:51:04.553Z,63.53
2018-11-03T05:53:38.481Z,63.25
2018-11-03T05:56:12.338Z,63.14
2018-11-03T05:58:46.243Z,63.12
2018-11-03T06:01:20.083Z,63.25
2018-11-03T06:03:54.028Z,63.09
2018-11-03T06:06:27.867Z,63.32
2018-11-03T06:09:01.838Z,63.19
2018-11-03T06:11:35.596Z,63.24
2018-11-03T06:14:09.491Z,62.97
2018-11-03T06:16:43.354Z,63.00
2018-11-03T06:19:17.278Z,63.09
2018-11-03T06:21:51.107Z,63.02
2018-11-03T06:24:25.097Z,62.89
2018-11-03T06:26:58.951Z,63.02
2018-11-03T06:29:32.897Z,62.87
2018-11-03T06:32:07.137Z,63.15
2018-11-03T06:34:41.104Z,63.13
2018-11-03T06:37:14.866Z,62.93
2018-11-03T06:39:48.807Z,62.40
2018-11-03T06:42:22.715Z,62.36
2018-11-03T06:44:56.557Z,62.53
2018-11-03T06:47:30.501Z,62.49
2018-11-03T06:50:05.382Z,62.47
2018-11-03T06:52:39.216Z,62.33
2018-11-03T06:55:13.114Z,62.44
2018-11-03T06:57:47.044Z,62.41
2018-11-03T07:00:20.991Z,62.32
2018-11-03T07:02:55.017Z,62.64
2018-11-03T07:05:29.063Z,62.52
2018-11-03T07:08:02.980Z,62.48
2018-11-03T07:10:36.893Z,62.57
2018-11-03T07:13:10.734Z,62.49
2018-11-03T07:15:44.694Z,62.53
2018-11-03T07:18:18.465Z,62.45
2018-11-03T07:20:52.438Z,62.70
2018-11-03T07:23:26.303Z,62.46
2018-11-03T07:26:00.161Z,62.29
2018-11-03T07:28:34.208Z,62.41
2018-11-03T07:31:08.141Z,62.17
2018-11-03T07:33:42.032Z,62.22
2018-11-03T07:36:16.264Z,62.31
2018-11-03T07:38:50.155Z,62.25
2018-11-03T07:41:24.141Z,62.26
2018-11-03T07:43:57.996Z,62.67
2018-11-03T07:46:31.936Z,62.58
2018-11-03T07:49:06.415Z,62.33
2018-11-03T07:51:40.190Z,62.52
2018-11-03T07:54:14.019Z,62.51
2018-11-03T07:56:47.903Z,62.65
2018-11-03T07:59:22.872Z,62.98
2018-11-03T08:01:56.823Z,63.07
2018-11-03T08:04:30.695Z,63.46
2018-11-03T08:07:04.561Z,63.24
2018-11-03T08:09:38.485Z,63.45
2018-11-03T08:12:12.432Z,63.27
2018-11-03T08:14:46.290Z,63.28
2018-11-03T08:17:20.235Z,63.25
2018-11-03T08:19:54.286Z,63.43
2018-11-03T08:22:29.069Z,63.57
2018-11-03T08:25:03.022Z,63.69
2018-11-03T08:27:36.938Z,63.48
2018-11-03T08:30:13.125Z,63.49
2018-11-03T08:32:46.974Z,63.51
2018-11-03T08:35:20.931Z,63.56
2018-11-03T08:37:54.955Z,63.83
2018-11-03T08:40:28.902Z,63.79
2018-11-03T08:43:02.791Z,63.66
2018-11-03T08:45:36.859Z,63.57
2018-11-03T08:48:10.802Z,63.40
2018-11-03T08:50:44.625Z,63.28
2018-11-03T08:53:18.576Z,63.36
2018-11-03T08:55:52.736Z,63.41
2018-11-03T08:58:26.700Z,63.28
2018-11-03T09:01:00.836Z,63.26
2018-11-03T09:03:34.853Z,63.40
2018-11-03T09:06:08.680Z,63.44
2018-11-03T09:08:42.584Z,63.50
2018-11-03T09:11:16.494Z,63.47
2018-11-03T09:13:50.376Z,63.49
2018-11-03T09:16:24.311Z,63.71
2018-11-03T09:18:58.896Z,63.71
2018-11-03T09:21:33.513Z,63.45
2018-11-03T09:24:07.730Z,63.69
2018-11-03T09:26:41.561Z,63.88
2018-11-03T09:29:15.540Z,63.99
2018-11-03T09:31:49.473Z,63.64
2018-11-03T09:34:23.297Z,63.80
2018-11-03T09:36:57.191Z,63.87
2018-11-03T09:39:31.152Z,64.11
2018-11-03T09:42:05.598Z,64.15
2018-11-03T09:44:39.661Z,64.21
2018-11-03T09:47:13.515Z,64.19
2018-11-03T09:49:50.437Z,64.37
2018-11-03T09:52:24.501Z,64.25
2018-11-03T09:54:58.463Z,64.53
2018-11-03T09:57:32.393Z,64.50
2018-11-03T10:00:09.115Z,64.47
2018-11-03T10:02:43.083Z,64.29
2018-11-03T10:05:17.508Z,64.13
2018-11-03T10:07:51.371Z,63.83
2018-11-03T10:10:25.355Z,64.09
2018-11-03T10:12:59.205Z,63.93
2018-11-03T10:15:33.042Z,63.89
2018-11-03T10:18:08.112Z,63.98
2018-11-03T10:20:42.003Z,64.02
2018-11-03T10:23:15.840Z,64.26
2018-11-03T10:25:49.891Z,64.15
2018-11-03T10:28:23.737Z,64.11
2018-11-03T10:30:57.626Z,64.20
2018-11-03T10:33:31.552Z,63.87
2018-11-03T10:36:05.620Z,63.89
2018-11-03T10:38:39.502Z,64.11
2018-11-03T10:41:13.420Z,64.06
2018-11-03T10:43:47.260Z,64.00
2018-11-03T10:46:21.470Z,64.03
2018-11-03T10:48:55.435Z,64.12
2018-11-03T10:51:29.385Z,63.91
2018-11-03T10:54:03.930Z,63.78
2018-11-03T10:56:37.825Z,63.58
2018-11-03T10:59:11.761Z,63.49
2018-11-03T11:02:53.430Z,63.07
2018-11-03T11:05:32.580Z,63.48
2018-11-03T11:08:11.764Z,63.18
2018-11-03T11:10:50.806Z,62.55
2018-11-03T11:13:26.206Z,62.63
2018-11-03T11:16:00.397Z,62.79
2018-11-03T11:18:34.263Z,62.94
2018-11-03T11:21:08.095Z,60.63
2018-11-03T11:23:42.002Z,61.18
2018-11-03T11:26:15.849Z,61.03
2018-11-03T11:28:49.732Z,61.41
2018-11-03T11:31:23.587Z,61.49
2018-11-03T11:33:57.451Z,61.33
2018-11-03T11:36:31.220Z,60.74
2018-11-03T11:39:06.465Z,61.21
2018-11-03T11:41:40.380Z,60.12
2018-11-03T11:44:14.227Z,60.45
2018-11-03T11:46:48.086Z,61.00
2018-11-03T11:49:21.989Z,60.95
2018-11-03T11:51:55.850Z,60.53
2018-11-03T11:54:29.817Z,60.62
2018-11-03T11:57:03.670Z,60.28
2018-11-03T11:59:37.737Z,58.63
2018-11-03T12:02:11.822Z,59.08
2018-11-03T12:04:45.689Z,59.41
2018-11-03T12:07:19.573Z,59.75
2018-11-03T12:09:53.498Z,59.34
2018-11-03T12:12:27.322Z,58.52
2018-11-03T12:15:01.283Z,58.74
2018-11-03T12:17:35.142Z,59.30
2018-11-03T12:20:09.398Z,59.06
2018-11-03T12:22:43.194Z,58.60
2018-11-03T12:25:17.102Z,58.38
2018-11-03T12:27:50.931Z,58.28
2018-11-03T12:30:24.805Z,58.37
2018-11-03T12:32:58.666Z,57.42
2018-11-03T12:35:32.531Z,57.96
2018-11-03T12:38:06.483Z,58.22
2018-11-03T12:40:40.513Z,57.71
2018-11-03T12:43:14.333Z,58.17
2018-11-03T12:45:48.191Z,57.71
2018-11-03T12:48:22.197Z,57.59
2018-11-03T12:50:56.036Z,57.80
2018-11-03T12:53:29.873Z,57.73
2018-11-03T12:56:03.755Z,56.46
2018-11-03T12:58:37.594Z,56.75
2018-11-03T13:01:11.455Z,56.20
2018-11-03T13:03:45.327Z,56.32
2018-11-03T13:06:19.194Z,56.24
2018-11-03T13:08:53.010Z,56.42
2018-11-03T13:11:27.147Z,56.81
2018-11-03T13:14:01.000Z,56.11
2018-11-03T13:16:35.837Z,55.94
2018-11-03T13:19:09.743Z,55.81
2018-11-03T13:21:43.651Z,56.01
2018-11-03T13:24:17.507Z,56.25
2018-11-03T13:26:51.391Z,55.99
2018-11-03T13:29:25.307Z,55.36
2018-11-03T13:31:59.181Z,55.12
2018-11-03T13:34:33.012Z,55.70
2018-11-03T13:37:08.037Z,55.34
2018-11-03T13:39:42.037Z,54.97
2018-11-03T13:42:17.098Z,55.04
2018-11-03T13:44:50.900Z,54.95
2018-11-03T13:47:25.223Z,54.86
2018-11-03T13:49:59.211Z,54.65
2018-11-03T13:52:33.955Z,54.74
2018-11-03T13:55:08.403Z,55.08
2018-11-03T13:57:43.419Z,54.57
2018-11-03T14:00:18.794Z,54.50
2018-11-03T14:02:52.645Z,54.62
2018-11-03T14:05:27.079Z,53.84
2018-11-03T14:08:00.981Z,54.91
2018-11-03T14:10:34.810Z,54.80
2018-11-03T14:13:08.811Z,54.20
2018-11-03T14:15:42.660Z,54.39
2018-11-03T14:18:16.594Z,54.08
2018-11-03T14:20:50.667Z,54.38
2018-11-03T14:23:24.586Z,54.76
2018-11-03T14:25:58.424Z,54.46
2018-11-03T14:28:32.557Z,54.57
2018-11-03T14:31:06.401Z,53.82
2018-11-03T14:33:40.536Z,54.38
2018-11-03T14:36:14.433Z,54.09
2018-11-03T14:38:48.333Z,54.51
2018-11-03T14:41:22.185Z,54.44
2018-11-03T14:43:56.282Z,53.96
2018-11-03T14:46:30.488Z,54.29
2018-11-03T14:49:04.548Z,53.64
2018-11-03T14:51:38.585Z,54.51
2018-11-03T14:54:12.741Z,54.79
2018-11-03T14:56:46.743Z,54.72
2018-11-03T14:59:20.868Z,54.75
2018-11-03T15:01:54.941Z,55.41
2018-11-03T15:04:28.983Z,55.69
2018-11-03T15:07:02.843Z,55.58
2018-11-03T15:09:36.728Z,55.75
2018-11-03T15:12:10.657Z,55.37
2018-11-03T15:14:44.669Z,55.84
2018-11-03T15:17:18.509Z,55.91
2018-11-03T15:19:52.361Z,55.93
2018-11-03T15:22:26.556Z,56.14
2018-11-03T15:25:00.893Z,56.46
2018-11-03T15:27:34.968Z,56.88
2018-11-03T15:30:10.383Z,57.01
2018-11-03T15:32:44.350Z,57.03
2018-11-03T15:35:18.219Z,57.08
2018-11-03T15:37:52.004Z,57.06
2018-11-03T15:40:25.965Z,56.93
2018-11-03T15:42:59.783Z,57.46
2018-11-03T15:45:33.738Z,57.36
2018-11-03T15:48:07.629Z,57.55
2018-11-03T15:50:46.482Z,57.97
2018-11-03T15:53:20.594Z,57.78
2018-11-03T15:55:54.493Z,57.86
2018-11-03T15:58:28.310Z,58.03
2018-11-03T16:01:02.208Z,58.00
2018-11-03T16:03:36.076Z,57.98
2018-11-03T16:06:09.900Z,58.11
2018-11-03T16:08:43.851Z,58.12
2018-11-03T16:11:17.765Z,58.33
2018-11-03T16:13:51.620Z,58.21
2018-11-03T16:16:25.495Z,58.16
2018-11-03T16:18:59.517Z,58.59
2018-11-03T16:21:33.555Z,58.33
2018-11-03T16:24:07.416Z,58.49
2018-11-03T16:26:41.321Z,58.65
2018-11-03T16:29:15.098Z,58.74
2018-11-03T16:31:49.017Z,58.81
2018-11-03T16:34:23.029Z,59.12
2018-11-03T16:36:56.882Z,58.97
2018-11-03T16:39:30.717Z,58.89
2018-11-03T16:42:04.896Z,58.93
2018-11-03T16:44:38.737Z,59.17
2018-11-03T16:47:12.607Z,59.14
2018-11-03T16:49:46.508Z,59.03
2018-11-03T16:52:20.404Z,59.11
2018-11-03T16:54:54.248Z,59.28
2018-11-03T16:57:28.109Z,59.01
2018-11-03T17:00:02.023Z,59.38
2018-11-03T17:02:36.259Z,59.34
2018-11-03T17:05:11.334Z,59.42
2018-11-03T17:07:45.196Z,59.61
2018-11-03T17:10:19.119Z,59.65
2018-11-03T17:12:53.104Z,59.93
2018-11-03T17:15:26.915Z,59.60
2018-11-03T17:18:00.876Z,59.60
2018-11-03T17:20:34.819Z,59.47
2018-11-03T17:23:08.808Z,59.58
2018-11-03T17:25:42.602Z,59.56
2018-11-03T17:28:16.460Z,59.72
2018-11-03T17:30:50.369Z,59.84
2018-11-03T17:33:24.281Z,59.82
2018-11-03T17:35:58.131Z,59.95
2018-11-03T17:38:31.974Z,60.35
2018-11-03T17:41:05.959Z,60.33
2018-11-03T17:43:39.959Z,59.88
2018-11-03T17:46:13.867Z,59.99
2018-11-03T17:48:47.730Z,59.87
2018-11-03T17:51:22.028Z,59.95
2018-11-03T17:53:56.361Z,60.27
2018-11-03T17:56:30.720Z,60.10
2018-11-03T17:59:05.068Z,60.00
2018-11-03T18:01:39.210Z,59.90
2018-11-03T18:04:13.591Z,60.38
2018-11-03T18:06:47.916Z,60.03
2018-11-03T18:09:22.389Z,60.20
2018-11-03T18:11:56.511Z,60.33
2018-11-03T18:14:31.150Z,60.27
2018-11-03T18:17:05.393Z,60.35
2018-11-03T18:19:39.897Z,60.58
2018-11-03T18:22:14.248Z,60.37
2018-11-03T18:24:49.050Z,60.50
2018-11-03T18:27:23.236Z,60.60
2018-11-03T18:29:57.444Z,60.58
2018-11-03T18:32:31.829Z,60.63
2018-11-03T18:35:06.709Z,60.63
2018-11-03T18:37:41.037Z,60.71
2018-11-03T18:40:15.239Z,60.67
2018-11-03T18:42:49.682Z,60.45
2018-11-03T18:45:23.928Z,60.40
2018-11-03T18:47:58.081Z,60.46
2018-11-03T18:50:32.323Z,60.54
2018-11-03T18:53:06.904Z,60.56
2018-11-03T18:55:41.294Z,60.42
2018-11-03T18:58:15.375Z,60.62
2018-11-03T19:00:49.678Z,60.55
2018-11-03T19:03:24.054Z,60.55
2018-11-03T19:05:58.350Z,60.42
2018-11-03T19:08:32.644Z,60.54
2018-11-03T19:11:07.841Z,60.51
2018-11-03T19:13:42.159Z,60.66
2018-11-03T19:16:16.708Z,60.74
2018-11-03T19:18:50.862Z,60.71
2018-11-03T19:21:25.014Z,60.71
2018-11-03T19:23:59.432Z,60.99
2018-11-03T19:26:33.753Z,60.76
2018-11-03T19:29:07.978Z,60.71
2018-11-03T19:31:42.201Z,60.81
2018-11-03T19:34:16.417Z,60.69
2018-11-03T19:36:50.392Z,60.66
2018-11-03T19:39:24.192Z,60.69
2018-11-03T19:41:58.105Z,60.44
2018-11-03T19:44:31.903Z,60.41
2018-11-03T19:47:05.853Z,60.62
2018-11-03T19:49:39.658Z,60.66
2018-11-03T19:52:13.532Z,60.75
2018-11-03T19:54:47.383Z,60.77
2018-11-03T19:57:21.264Z,60.95
2018-11-03T19:59:55.070Z,60.69
2018-11-03T20:02:28.935Z,60.66
2018-11-03T20:05:02.769Z,60.41
2018-11-03T20:07:36.624Z,60.62
2018-11-03T20:10:10.598Z,60.54
2018-11-03T20:12:44.425Z,60.70
2018-11-03T20:15:18.282Z,60.54
2018-11-03T20:17:52.269Z,60.50
2018-11-03T20:20:26.089Z,60.46
2018-11-03T20:22:59.933Z,60.45
2018-11-03T20:25:33.739Z,60.33
2018-11-03T20:28:07.601Z,60.36
2018-11-03T20:30:41.426Z,60.49
2018-11-03T20:33:15.296Z,60.66
2018-11-03T20:35:49.114Z,60.67
2018-11-03T20:38:22.957Z,60.27
2018-11-03T20:40:56.858Z,60.68
2018-11-03T20:43:30.809Z,60.76
2018-11-03T20:46:04.678Z,60.45
2018-11-03T20:48:38.585Z,60.68
2018-11-03T20:51:13.097Z,60.32
2018-11-03T20:53:47.059Z,60.37
2018-11-03T20:56:20.857Z,60.63
2018-11-03T20:58:54.716Z,60.56
2018-11-03T21:01:28.571Z,60.66
2018-11-03T21:04:02.486Z,60.66
2018-11-03T21:06:36.316Z,60.50
2018-11-03T21:09:11.045Z,60.41
2018-11-03T21:11:44.880Z,60.35
2018-11-03T21:14:18.747Z,60.30
2018-11-03T21:16:52.562Z,60.84
2018-11-03T21:19:26.418Z,60.66
2018-11-03T21:22:00.371Z,60.63
2018-11-03T21:24:34.214Z,60.89
2018-11-03T21:27:09.682Z,60.62
2018-11-03T21:29:43.527Z,60.60
2018-11-03T21:32:17.405Z,60.52
2018-11-03T21:34:51.238Z,61.23
2018-11-03T21:37:25.052Z,60.84
2018-11-03T21:39:58.948Z,60.79
2018-11-03T21:42:32.797Z,60.75
2018-11-03T21:45:07.494Z,61.08
2018-11-03T21:47:41.288Z,61.01
2018-11-03T21:50:15.198Z,60.62
2018-11-03T21:52:49.019Z,60.78
2018-11-03T21:55:22.839Z,60.78
2018-11-03T21:57:56.662Z,60.76
2018-11-03T22:00:30.496Z,60.70
2018-11-03T22:03:04.348Z,60.58
2018-11-03T22:05:38.221Z,60.66
2018-11-03T22:08:12.056Z,60.86
2018-11-03T22:10:46.003Z,60.84
2018-11-03T22:13:19.827Z,60.74
2018-11-03T22:15:53.831Z,60.51
2018-11-03T22:18:27.628Z,60.51
2018-11-03T22:21:01.538Z,60.46
2018-11-03T22:23:35.361Z,60.72
2018-11-03T22:26:09.299Z,60.49
2018-11-03T22:28:43.096Z,60.68
2018-11-03T22:31:16.982Z,60.60
2018-11-03T22:33:50.788Z,60.53
2018-11-03T22:36:24.657Z,60.57
2018-11-03T22:38:59.165Z,60.66
2018-11-03T22:41:33.367Z,60.87
2018-11-03T22:44:07.216Z,61.15
2018-11-03T22:46:41.117Z,60.81
2018-11-03T22:49:14.996Z,60.79
2018-11-03T22:51:49.477Z,60.58
2018-11-03T22:54:23.235Z,60.77
2018-11-03T22:56:57.100Z,61.35
2018-11-03T22:59:30.928Z,60.82
2018-11-03T23:02:04.963Z,60.82
2018-11-03T23:04:38.914Z,61.00
2018-11-03T23:07:12.860Z,61.04
2018-11-03T23:09:46.668Z,60.91
2018-11-03T23:12:20.533Z,60.90
2018-11-03T23:14:54.387Z,60.67
2018-11-03T23:17:28.236Z,60.71
2018-11-03T23:20:02.050Z,61.08
2018-11-03T23:22:35.919Z,61.03
2018-11-03T23:25:10.456Z,61.03
2018-11-03T23:27:44.310Z,61.05
2018-11-03T23:30:18.204Z,60.85
2018-11-03T23:32:52.048Z,60.98
2018-11-03T23:35:25.914Z,61.03
2018-11-03T23:37:59.879Z,61.37
2018-11-03T23:40:33.736Z,61.25
2018-11-03T23:43:07.661Z,61.05
2018-11-03T23:45:41.468Z,61.04
2018-11-03T23:48:15.365Z,60.92
2018-11-03T23:50:49.194Z,61.10
2018-11-03T23:53:23.178Z,61.22
2018-11-03T23:55:57.082Z,61.07
2018-11-03T23:58:30.978Z,60.99
